createdAt,value
2019-03-01T00:00:00.738Z,81
2019-03-01T00:10:00.426Z,82
2019-03-01T00:20:00.435Z,82
2019-03-01T00:30:00.545Z,82
2019-03-01T00:40:00.432Z,83
2019-03-01T00:50:00.445Z,83
2019-03-01T01:00:00.626Z,83
2019-03-01T01:10:00.436Z,83
2019-03-01T01:20:00.440Z,83
2019-03-01T01:30:00.607Z,83
2019-03-01T01:40:00.533Z,83
2019-03-01T01:50:00.432Z,83
2019-03-01T02:00:00.492Z,83
2019-03-01T02:10:00.574Z,83
2019-03-01T02:20:00.457Z,83
2019-03-01T02:30:00.684Z,83
2019-03-01T02:40:00.480Z,83
2019-03-01T02:50:00.449Z,83
2019-03-01T03:00:00.687Z,83
2019-03-01T03:10:00.526Z,83
2019-03-01T03:20:00.389Z,83
2019-03-01T03:30:00.651Z,83
2019-03-01T03:40:00.503Z,84
2019-03-01T03:50:00.555Z,84
2019-03-01T04:00:00.645Z,84
2019-03-01T04:10:00.470Z,84
2019-03-01T04:20:00.457Z,84
2019-03-01T04:30:00.604Z,84
2019-03-01T04:40:00.398Z,84
2019-03-01T04:50:00.436Z,84
2019-03-01T05:00:00.703Z,84
2019-03-01T05:10:00.444Z,84
2019-03-01T05:20:00.401Z,86
2019-03-01T05:30:00.600Z,86
2019-03-01T05:40:00.515Z,86
2019-03-01T05:50:00.347Z,86
2019-03-01T06:00:00.564Z,86
2019-03-01T06:10:00.540Z,86
2019-03-01T06:20:00.581Z,87
2019-03-01T06:30:00.934Z,87
2019-03-01T06:40:00.526Z,87
2019-03-01T06:50:00.498Z,87
2019-03-01T07:00:00.817Z,87
2019-03-01T07:10:00.561Z,87
2019-03-01T07:20:00.555Z,88
2019-03-01T07:30:00.700Z,88
2019-03-01T07:40:00.414Z,88
2019-03-01T07:50:00.579Z,88
2019-03-01T08:00:00.884Z,88
2019-03-01T08:10:00.523Z,88
2019-03-01T08:20:00.630Z,88
2019-03-01T08:30:00.608Z,88
2019-03-01T08:40:00.517Z,88
2019-03-01T08:50:00.551Z,88
2019-03-01T09:00:00.603Z,89
2019-03-01T09:10:00.567Z,89
2019-03-01T09:20:01.150Z,89
2019-03-01T09:30:03.452Z,89
2019-03-01T09:40:05.357Z,89
2019-03-01T09:50:01.185Z,89
2019-03-01T10:00:00.609Z,88
2019-03-01T10:10:00.525Z,88
2019-03-01T10:20:00.701Z,88
2019-03-01T10:30:00.622Z,88
2019-03-01T10:40:00.545Z,88
2019-03-01T10:50:00.506Z,89
2019-03-01T11:00:00.669Z,89
2019-03-01T11:10:00.668Z,90
2019-03-01T11:20:00.506Z,90
2019-03-01T11:30:00.690Z,90
2019-03-01T11:40:00.632Z,90
2019-03-01T11:50:00.438Z,89
2019-03-01T12:00:00.657Z,89
2019-03-01T12:10:00.611Z,88
2019-03-01T12:20:00.633Z,88
2019-03-01T12:30:00.781Z,88
2019-03-01T12:40:00.597Z,88
2019-03-01T12:50:00.563Z,86
2019-03-01T13:00:00.782Z,86
2019-03-01T13:10:02.725Z,87
2019-03-01T13:20:01.012Z,87
2019-03-01T13:30:00.723Z,87
2019-03-01T13:40:00.480Z,87
2019-03-01T13:50:05.372Z,87
2019-03-01T14:00:00.613Z,87
2019-03-01T14:10:00.696Z,87
2019-03-01T14:20:00.546Z,87
2019-03-01T14:30:00.515Z,87
2019-03-01T14:40:00.546Z,87
2019-03-01T14:50:00.522Z,86
2019-03-01T15:00:00.702Z,86
2019-03-01T15:10:00.613Z,86
2019-03-01T15:20:00.558Z,80
2019-03-01T15:30:00.699Z,77
2019-03-01T15:40:00.512Z,78
2019-03-01T15:50:00.461Z,78
2019-03-01T16:00:00.744Z,78
2019-03-01T16:10:00.997Z,77
2019-03-01T16:20:00.530Z,77
2019-03-01T16:30:01.349Z,76
2019-03-01T16:40:01.429Z,76
2019-03-01T16:50:02.678Z,76
2019-03-01T17:00:00.902Z,76
2019-03-01T17:10:00.453Z,77
2019-03-01T17:20:02.251Z,77
2019-03-01T17:30:00.590Z,77
2019-03-01T17:40:00.545Z,76
2019-03-01T17:50:00.482Z,76
2019-03-01T18:00:00.591Z,75
2019-03-01T18:10:00.531Z,76
2019-03-01T18:20:01.510Z,76
2019-03-01T18:30:00.859Z,76
2019-03-01T18:40:00.471Z,76
2019-03-01T18:50:00.453Z,76
2019-03-01T19:00:01.100Z,76
2019-03-01T19:10:00.510Z,76
2019-03-01T19:20:01.870Z,76
2019-03-01T19:30:00.615Z,76
2019-03-01T19:40:00.574Z,76
2019-03-01T19:50:00.562Z,76
2019-03-01T20:00:00.631Z,76
2019-03-01T20:10:00.489Z,76
2019-03-01T20:20:00.441Z,76
2019-03-01T20:30:00.574Z,76
2019-03-01T20:40:00.498Z,76
2019-03-01T20:50:00.497Z,76
2019-03-01T21:00:01.780Z,76
2019-03-01T21:10:00.466Z,76
2019-03-01T21:20:01.086Z,76
2019-03-01T21:30:00.570Z,76
2019-03-01T21:40:00.656Z,76
2019-03-01T21:50:03.845Z,76
2019-03-01T22:00:00.568Z,76
2019-03-01T22:10:00.769Z,77
2019-03-01T22:20:00.416Z,77
2019-03-01T22:30:00.582Z,77
2019-03-01T22:40:00.463Z,77
2019-03-01T22:50:03.945Z,77
2019-03-01T23:00:00.671Z,77
2019-03-01T23:10:00.498Z,77
2019-03-01T23:20:00.407Z,77
2019-03-01T23:30:00.691Z,77
2019-03-01T23:40:00.896Z,77
2019-03-01T23:50:00.602Z,77
